TimeEDT,TemperatureF,Dew PointF,Humidity,Sea Level PressureIn,VisibilityMPH,Wind Direction,Wind SpeedMPH,Gust SpeedMPH,PrecipitationIn,Events,Conditions,WindDirDegrees,DateUTC
12:52 AM,54.0,39.9,59,29.98,10.0,NE,5.8,-,N/A,,Clear,50,2012-10-21 04:52:00
1:52 AM,53.1,39.9,61,29.99,10.0,NNE,4.6,-,N/A,,Clear,30,2012-10-21 05:52:00
2:52 AM,50.0,39.2,66,30.01,10.0,NE,3.5,-,N/A,,Clear,40,2012-10-21 06:52:00
4:52 AM,48.0,39.0,71,30.03,10.0,Calm,Calm,-,N/A,,Clear,0,2012-10-21 08:52:00
6:52 AM,44.1,39.9,85,30.09,10.0,North,3.5,-,N/A,,Partly Cloudy,350,2012-10-21 10:52:00
7:52 AM,41.0,37.9,89,30.12,10.0,North,4.6,-,N/A,,Partly Cloudy,350,2012-10-21 11:52:00
8:52 AM,50.0,42.8,76,30.15,10.0,NNW,3.5,-,N/A,,Clear,340,2012-10-21 12:52:00
9:52 AM,57.0,41.0,55,30.16,10.0,Variable,6.9,-,N/A,,Clear,0,2012-10-21 13:52:00
10:52 AM,60.8,39.2,45,30.17,10.0,ENE,6.9,-,N/A,,Clear,70,2012-10-21 14:52:00
11:52 AM,63.0,41.0,45,30.16,10.0,Variable,3.5,-,N/A,,Clear,0,2012-10-21 15:52:00
12:52 PM,62.6,42.8,48,30.16,10.0,Calm,Calm,-,N/A,,Clear,0,2012-10-21 16:52:00
1:52 PM,66.9,41.0,39,30.12,10.0,Variable,4.6,-,N/A,,Clear,0,2012-10-21 17:52:00
2:52 PM,66.9,42.1,40,30.10,10.0,South,4.6,-,N/A,,Clear,190,2012-10-21 18:52:00
3:52 PM,68.0,42.1,39,30.10,10.0,Variable,3.5,-,N/A,,Clear,0,2012-10-21 19:52:00
4:52 PM,68.0,43.0,40,30.10,10.0,Calm,Calm,-,N/A,,Partly Cloudy,0,2012-10-21 20:52:00
5:52 PM,68.0,42.8,40,30.11,10.0,Calm,Calm,-,N/A,,Partly Cloudy,0,2012-10-21 21:52:00
6:52 PM,62.1,43.0,50,30.12,10.0,South,3.5,-,N/A,,Partly Cloudy,180,2012-10-21 22:52:00
7:52 PM,52.0,45.0,77,30.14,10.0,Calm,Calm,-,N/A,,Partly Cloudy,0,2012-10-21 23:52:00
8:52 PM,59.0,44.1,58,30.14,10.0,Calm,Calm,-,N/A,,Clear,0,2012-10-22 00:52:00
9:52 PM,55.9,44.1,64,30.14,10.0,Calm,Calm,-,N/A,,Clear,0,2012-10-22 01:52:00
10:52 PM,53.1,45.0,74,30.15,10.0,Calm,Calm,-,N/A,,Clear,0,2012-10-22 02:52:00
11:52 PM,51.1,44.1,77,30.16,10.0,Calm,Calm,-,N/A,,Clear,0,2012-10-22 03:52:00